Main page
METAR-TAF:

Airports :

Lisbon, Portugal

Lisbon Portela Airport

latitude: 38-46N, longitude: 009-08W, elevation: 114 m

Current weather observation

The report was made 24 minutes ago, at 20:30 UTC
Wind 14 kt from the Northwest
Temperature 22°C
Humidity 57%
Pressure 1016 hPa
Visibility 10 km or more
no clouds below 1500 m and no cumulonimbus

METAR: LPPT 262030Z 31014KT CAVOK 22/13 Q1016

Time: 21:54 (20:54 UTC)

Forecast

The report was made 3 hours and 54 minutes ago, at 17:00 UTC
Forecast valid from 26 at 18 UTC to 27 at 24 UTC
Wind 15 kt from the North/Northwest
Visibility 10 km or more
no clouds below 1500 m and no cumulonimbus
Becoming
from 26 at 22 UTC to 26 at 24 UTC
Wind 10 kt from the North
Becoming
from 27 at 07 UTC to 27 at 09 UTC
Wind 8 kt from the Northeast
Becoming
from 27 at 15 UTC to 27 at 17 UTC
Wind 15 kt from the North/Northwest

TAF: LPPT 261700Z 2618/2724 33015KT CAVOK BECMG 2622/2624 35010KT BECMG 2707/2709 04008KT BECMG 2715/2717 33015KT

METAR-TAF

Weather observations and forecasts of more than 4000 airports (METAR and TAF reports).

The available stations are represented by yellow and red dots on the map.

Hover mouse over dot to see the name of the station.

Then click to see weather observations and forecasts.

To change the map : click on the green buttons with a black cross to zoom in, on the green button with a dash to zoom out, or on the green arrows for adjacent maps.


METAR-TAF: